Time;durP1;ratioP1;P1;durP2;ratioP2;P2;SDS_P1;SDS_P2;PMS_P1;PMS_P2;Temp;Humidity;BMP_temperature;BMP_pressure;BME280_temperature;BME280_humidity;BME280_pressure;Samples;Min_cycle;Max_cycle;Signal;HPM_P1;HPM_P2
2022/03/03 00:02:15;;;;;;;34.73;19.47;;;1.10;80.80;;;;;;5034933;28;20481;-45
2022/03/03 00:04:42;;;;;;;38.20;18.67;;;1.10;81.20;;;;;;5032300;28;21052;-46
2022/03/03 00:07:08;;;;;;;30.60;18.20;;;1.10;81.80;;;;;;5034788;28;21051;-46
2022/03/03 00:09:35;;;;;;;35.40;20.07;;;1.10;82.40;;;;;;5031267;28;20512;-45
2022/03/03 00:12:02;;;;;;;48.83;21.57;;;1.10;83.10;;;;;;5022195;28;20479;-46
2022/03/03 00:14:29;;;;;;;35.70;20.10;;;1.00;82.80;;;;;;5031080;28;20477;-45
2022/03/03 00:16:57;;;;;;;38.03;21.20;;;1.00;82.80;;;;;;5032472;28;20501;-45
2022/03/03 00:19:24;;;;;;;42.80;21.70;;;1.00;83.00;;;;;;5030562;28;20839;-45
2022/03/03 00:21:51;;;;;;;43.60;21.37;;;1.00;83.00;;;;;;5032557;28;20487;-45
2022/03/03 00:24:17;;;;;;;38.00;19.50;;;1.00;83.10;;;;;;5029665;28;20495;-45
2022/03/03 00:26:44;;;;;;;43.73;20.40;;;1.00;82.80;;;;;;5057482;28;20826;-45
2022/03/03 00:29:11;;;;;;;30.67;18.67;;;1.00;82.60;;;;;;5034188;28;20487;-45
2022/03/03 00:31:38;;;;;;;41.13;22.57;;;1.00;82.30;;;;;;5032092;28;21240;-48
2022/03/03 00:34:07;;;;;;;37.40;19.90;;;0.90;81.80;;;;;;5032172;28;20472;-45
2022/03/03 00:36:35;;;;;;;30.03;17.53;;;0.90;82.20;;;;;;5049525;28;20474;-45
2022/03/03 00:39:02;;;;;;;28.10;17.60;;;0.90;82.80;;;;;;5031134;28;20491;-45
2022/03/03 00:41:28;;;;;;;34.13;20.20;;;0.80;82.40;;;;;;5049700;28;20529;-45
2022/03/03 00:43:55;;;;;;;34.30;18.47;;;0.80;82.20;;;;;;5034290;28;20494;-45
2022/03/03 00:46:25;;;;;;;29.17;19.30;;;0.80;82.00;;;;;;5029229;28;20579;-45
2022/03/03 00:48:51;;;;;;;38.47;19.30;;;0.60;82.30;;;;;;5023861;28;20472;-45
2022/03/03 00:51:19;;;;;;;34.00;19.03;;;0.50;82.10;;;;;;5029578;28;20506;-45
2022/03/03 00:53:47;;;;;;;40.30;19.87;;;0.60;81.90;;;;;;5032395;28;20646;-45
2022/03/03 00:56:13;;;;;;;32.13;19.03;;;0.60;82.70;;;;;;5033522;28;20558;-45
2022/03/03 00:58:41;;;;;;;36.10;17.57;;;0.60;82.90;;;;;;5029577;28;20483;-46
2022/03/03 01:01:08;;;;;;;28.93;17.17;;;0.60;82.90;;;;;;5033819;28;20472;-45
2022/03/03 01:03:34;;;;;;;34.43;16.97;;;0.60;82.90;;;;;;5036603;28;20511;-45
2022/03/03 01:06:02;;;;;;;33.93;18.80;;;0.60;83.20;;;;;;5042883;28;20486;-45
2022/03/03 01:08:30;;;;;;;37.30;18.27;;;0.60;83.50;;;;;;5044813;28;20480;-47
2022/03/03 01:10:57;;;;;;;55.80;21.10;;;0.70;83.50;;;;;;5040636;28;21204;-44
2022/03/03 01:13:23;;;;;;;26.30;15.93;;;0.70;83.10;;;;;;5044044;28;20486;-44
2022/03/03 01:15:53;;;;;;;33.53;18.23;;;0.60;83.10;;;;;;5046088;28;20495;-45
2022/03/03 01:18:20;;;;;;;34.00;18.20;;;0.60;83.60;;;;;;5041523;28;20566;-45
2022/03/03 01:20:47;;;;;;;32.03;18.63;;;0.60;83.40;;;;;;5039555;28;20489;-46
2022/03/03 01:23:14;;;;;;;29.63;17.50;;;0.50;83.00;;;;;;5041890;28;20881;-46
2022/03/03 01:25:42;;;;;;;31.63;17.23;;;0.50;83.20;;;;;;5041091;28;21470;-48
2022/03/03 01:28:08;;;;;;;39.20;19.80;;;0.50;83.30;;;;;;5044421;28;20479;-45
2022/03/03 01:30:35;;;;;;;31.60;19.43;;;0.60;83.30;;;;;;5039133;28;20479;-45
2022/03/03 01:33:02;;;;;;;32.73;18.33;;;0.60;83.30;;;;;;5041132;28;20478;-45
2022/03/03 01:35:29;;;;;;;31.13;17.87;;;0.60;83.20;;;;;;5043265;28;20482;-45
2022/03/03 01:37:56;;;;;;;34.83;20.67;;;0.60;83.30;;;;;;5044697;28;20480;-45
2022/03/03 01:40:23;;;;;;;38.63;20.17;;;0.60;83.40;;;;;;5041874;28;20480;-45
2022/03/03 01:42:51;;;;;;;36.07;20.80;;;0.60;83.30;;;;;;5044669;28;20477;-46
2022/03/03 01:45:19;;;;;;;46.27;20.80;;;0.70;83.60;;;;;;5045691;28;20491;-45
2022/03/03 01:47:45;;;;;;;45.23;20.83;;;0.60;83.30;;;;;;5045188;28;20475;-45
2022/03/03 01:50:13;;;;;;;37.00;19.60;;;0.60;83.30;;;;;;5039616;28;20479;-46
2022/03/03 01:52:39;;;;;;;34.47;18.53;;;0.60;83.30;;;;;;5041936;28;20487;-45
2022/03/03 01:55:07;;;;;;;37.17;18.50;;;0.70;83.00;;;;;;5045356;28;20487;-45
2022/03/03 01:57:34;;;;;;;33.83;20.03;;;0.60;83.00;;;;;;5043502;28;20483;-46
2022/03/03 02:00:04;;;;;;;35.40;18.83;;;0.60;83.30;;;;;;5039823;28;20521;-45
2022/03/03 02:02:31;;;;;;;43.80;19.77;;;0.50;83.70;;;;;;5041314;28;20479;-45
2022/03/03 02:04:58;;;;;;;37.33;20.80;;;0.50;83.60;;;;;;5043492;28;20482;-45
2022/03/03 02:07:25;;;;;;;32.43;18.60;;;0.50;83.30;;;;;;5048146;28;20490;-45
2022/03/03 02:09:51;;;;;;;38.10;19.67;;;0.50;82.80;;;;;;5042680;28;20859;-45
2022/03/03 02:12:18;;;;;;;33.63;17.83;;;0.50;83.00;;;;;;5042270;28;20491;-45
2022/03/03 02:14:46;;;;;;;32.67;17.83;;;0.50;83.20;;;;;;5037686;28;20484;-46
2022/03/03 02:17:15;;;;;;;40.37;21.90;;;0.50;83.60;;;;;;5033987;28;20460;-45
2022/03/03 02:19:42;;;;;;;35.77;19.70;;;0.50;83.10;;;;;;5041697;28;20502;-45
2022/03/03 02:22:11;;;;;;;33.90;19.90;;;0.40;82.70;;;;;;5043948;28;20475;-45
2022/03/03 02:24:38;;;;;;;27.70;17.17;;;0.40;83.20;;;;;;5041810;28;20489;-50
2022/03/03 02:27:07;;;;;;;28.17;17.70;;;0.40;83.10;;;;;;5040929;28;21016;-45
2022/03/03 02:29:35;;;;;;;34.50;20.53;;;0.40;82.70;;;;;;5048097;28;21043;-45
2022/03/03 02:32:04;;;;;;;33.73;19.20;;;0.40;83.00;;;;;;5043983;28;20479;-45
2022/03/03 02:34:31;;;;;;;32.93;21.03;;;0.40;83.30;;;;;;5043444;28;20479;-45
2022/03/03 02:36:57;;;;;;;36.67;20.97;;;0.40;83.80;;;;;;5040840;28;20476;-45
2022/03/03 02:39:26;;;;;;;51.80;23.83;;;0.40;84.20;;;;;;5031686;28;20499;-46
2022/03/03 02:41:52;;;;;;;59.93;30.17;;;0.30;84.30;;;;;;5049689;28;20479;-45
2022/03/03 02:44:19;;;;;;;52.93;30.57;;;0.40;83.90;;;;;;5043356;28;20498;-45
2022/03/03 02:46:46;;;;;;;38.33;23.10;;;0.30;83.30;;;;;;5043792;28;20486;-45
2022/03/03 02:49:13;;;;;;;39.07;21.10;;;0.30;82.70;;;;;;5042336;28;20475;-45
2022/03/03 02:51:39;;;;;;;67.77;28.10;;;0.10;82.70;;;;;;5042769;28;20544;-45
2022/03/03 02:54:06;;;;;;;46.23;20.70;;;0.10;83.10;;;;;;5038742;28;20826;-45
2022/03/03 02:57:53;;;;;;;35.80;24.00;;;0.00;82.70;;;;;;5041548;28;20490;-46
2022/03/03 02:59:21;;;;;;;64.67;27.43;;;-0.20;82.60;;;;;;5040470;28;20486;-45
2022/03/03 03:01:48;;;;;;;74.03;25.80;;;-0.40;83.30;;;;;;5042981;28;20472;-45
2022/03/03 03:04:15;;;;;;;52.63;26.13;;;-0.60;84.50;;;;;;5043709;28;20234;-45
2022/03/03 03:06:42;;;;;;;92.27;29.47;;;-0.70;85.30;;;;;;5041396;28;20486;-45
2022/03/03 03:09:09;;;;;;;59.77;29.47;;;-0.80;86.10;;;;;;5041650;28;20490;-45
2022/03/03 03:11:37;;;;;;;177.33;35.47;;;-0.90;86.60;;;;;;5042887;28;20490;-45
2022/03/03 03:14:04;;;;;;;57.87;25.03;;;-0.90;86.80;;;;;;5044083;28;20487;-45
2022/03/03 03:16:30;;;;;;;203.43;37.13;;;-0.50;87.00;;;;;;5042238;28;20492;-45
2022/03/03 03:18:57;;;;;;;89.80;25.70;;;;;;;;;;5035287;28;20486;-45
2022/03/03 03:21:24;;;;;;;61.17;25.37;;;-0.50;85.40;;;;;;5040876;28;20476;-45
2022/03/03 03:23:51;;;;;;;41.63;20.37;;;-0.40;85.00;;;;;;5043630;28;20489;-46
2022/03/03 03:26:18;;;;;;;110.37;35.87;;;-0.40;84.80;;;;;;5042650;28;20486;-45
2022/03/03 03:28:46;;;;;;;69.40;31.17;;;-0.40;84.60;;;;;;5037161;28;20476;-46
2022/03/03 03:31:13;;;;;;;50.10;24.00;;;-0.40;84.30;;;;;;5043575;28;20493;-45
2022/03/03 03:33:40;;;;;;;76.13;28.50;;;-0.30;83.70;;;;;;5042117;28;20493;-45
2022/03/03 03:36:06;;;;;;;53.67;22.83;;;-0.30;83.70;;;;;;5041935;28;20538;-45
2022/03/03 03:38:33;;;;;;;85.70;33.07;;;-0.20;83.70;;;;;;5042562;28;20473;-45
2022/03/03 03:41:00;;;;;;;40.87;20.60;;;-0.20;83.10;;;;;;5041840;28;21310;-46
2022/03/03 03:43:27;;;;;;;35.37;21.00;;;-0.20;83.00;;;;;;5038923;28;20499;-46
2022/03/03 03:45:55;;;;;;;36.87;19.00;;;-0.20;83.00;;;;;;5035466;28;20495;-45
2022/03/03 03:48:22;;;;;;;37.00;20.37;;;-0.20;83.10;;;;;;5051046;28;20979;-45
2022/03/03 03:50:48;;;;;;;46.37;22.13;;;-0.20;82.90;;;;;;5042690;28;20485;-45
2022/03/03 03:53:15;;;;;;;43.57;20.80;;;-0.30;82.60;;;;;;5046994;28;20485;-45
2022/03/03 03:55:42;;;;;;;38.00;21.80;;;-0.40;82.50;;;;;;5058411;28;20489;-46
2022/03/03 03:58:10;;;;;;;38.70;20.57;;;-0.40;82.40;;;;;;5041089;28;20977;-45
2022/03/03 04:00:37;;;;;;;51.97;26.93;;;-0.40;82.10;;;;;;5035188;28;20494;-45
2022/03/03 04:03:05;;;;;;;35.47;18.40;;;-0.40;81.90;;;;;;5042607;28;20475;-45
2022/03/03 04:05:32;;;;;;;42.53;24.40;;;-0.40;82.40;;;;;;5042256;28;20993;-45
2022/03/03 04:07:58;;;;;;;38.07;20.40;;;-0.40;82.70;;;;;;5043257;28;22023;-46
2022/03/03 04:10:25;;;;;;;52.13;22.30;;;-0.40;83.00;;;;;;5039328;28;20494;-45
2022/03/03 04:12:52;;;;;;;38.03;19.27;;;-0.40;83.10;;;;;;5042857;28;20487;-45
2022/03/03 04:15:19;;;;;;;37.33;20.20;;;-0.40;83.20;;;;;;5047883;28;20475;-45
2022/03/03 04:17:45;;;;;;;46.40;23.40;;;-0.50;82.40;;;;;;5041744;28;20479;-46
2022/03/03 04:20:14;;;;;;;34.90;21.07;;;-0.60;82.40;;;;;;5030304;28;20476;-45
2022/03/03 04:22:40;;;;;;;38.33;21.77;;;-0.60;82.40;;;;;;5039917;28;20491;-46
2022/03/03 04:25:10;;;;;;;28.40;17.30;;;-0.60;82.30;;;;;;5042043;28;20486;-45
2022/03/03 04:27:37;;;;;;;37.43;21.60;;;-0.60;82.40;;;;;;5041518;28;20520;-45
2022/03/03 04:30:05;;;;;;;40.07;19.17;;;-0.60;83.00;;;;;;5041985;28;20665;-45
2022/03/03 04:32:32;;;;;;;32.50;20.40;;;-0.60;83.30;;;;;;5042397;28;20483;-45
2022/03/03 04:34:59;;;;;;;45.03;19.43;;;-0.60;83.30;;;;;;5039464;28;20486;-45
2022/03/03 04:37:27;;;;;;;34.80;22.30;;;-0.60;82.80;;;;;;5041518;28;20483;-45
2022/03/03 04:39:54;;;;;;;54.67;18.10;;;-0.60;82.40;;;;;;5029442;28;20487;-45
2022/03/03 04:42:20;;;;;;;31.67;18.80;;;-0.60;82.70;;;;;;5042233;28;20493;-44
2022/03/03 04:44:47;;;;;;;32.30;18.73;;;-0.60;82.90;;;;;;5041039;28;20482;-46
2022/03/03 04:47:14;;;;;;;30.10;17.30;;;-0.70;83.00;;;;;;5042211;28;20482;-45
2022/03/03 04:49:41;;;;;;;33.47;18.47;;;-0.70;83.20;;;;;;5037560;28;20483;-45
2022/03/03 04:52:08;;;;;;;34.80;18.47;;;-0.70;83.60;;;;;;5040456;28;20488;-45
2022/03/03 04:54:36;;;;;;;33.63;18.90;;;-0.70;83.60;;;;;;5041079;28;21021;-46
2022/03/03 04:57:03;;;;;;;29.30;18.07;;;-0.70;83.60;;;;;;5042105;28;20477;-45
2022/03/03 04:59:30;;;;;;;39.47;20.17;;;-0.70;83.80;;;;;;5040169;28;20768;-46
2022/03/03 05:01:57;;;;;;;46.20;18.33;;;-0.70;84.00;;;;;;5041244;28;20490;-45
2022/03/03 05:04:24;;;;;;;36.30;20.80;;;-0.70;84.20;;;;;;5041211;28;20484;-45
2022/03/03 05:06:50;;;;;;;42.77;22.60;;;-0.70;83.90;;;;;;5042477;28;20479;-45
2022/03/03 05:09:17;;;;;;;35.40;20.27;;;-0.70;83.20;;;;;;5040461;28;22108;-45
2022/03/03 05:11:45;;;;;;;31.17;19.00;;;-0.70;82.70;;;;;;5041057;28;20494;-49
2022/03/03 05:14:12;;;;;;;30.77;19.03;;;-0.70;82.90;;;;;;5041162;28;20478;-45
2022/03/03 05:16:39;;;;;;;53.00;20.17;;;-0.80;82.50;;;;;;5040082;28;20480;-51
2022/03/03 05:19:06;;;;;;;30.50;18.37;;;-0.80;82.60;;;;;;5040399;28;20492;-45
2022/03/03 05:21:33;;;;;;;34.43;20.17;;;-0.90;82.70;;;;;;5034937;28;20994;-47
2022/03/03 05:24:00;;;;;;;52.10;19.13;;;-0.90;82.50;;;;;;5050966;28;20485;-45
2022/03/03 05:26:27;;;;;;;28.53;18.20;;;-0.90;82.20;;;;;;5042322;28;20511;-45
2022/03/03 05:28:55;;;;;;;25.77;16.60;;;-0.90;81.90;;;;;;5040352;28;20526;-45
2022/03/03 05:31:22;;;;;;;43.07;19.60;;;-0.90;81.70;;;;;;5041216;28;20514;-45
2022/03/03 05:33:50;;;;;;;39.87;19.70;;;-0.90;82.10;;;;;;5041407;28;20492;-45
2022/03/03 05:36:18;;;;;;;29.80;17.47;;;-1.00;82.50;;;;;;5042121;28;20482;-45
2022/03/03 05:38:44;;;;;;;37.67;17.23;;;-1.00;82.40;;;;;;5037939;28;20479;-45
2022/03/03 05:41:11;;;;;;;28.90;16.50;;;-1.00;82.60;;;;;;5040469;28;20493;-45
2022/03/03 05:43:38;;;;;;;39.40;19.43;;;-0.90;83.00;;;;;;5035928;28;20483;-45
2022/03/03 05:46:06;;;;;;;34.87;17.20;;;-0.90;82.50;;;;;;5040837;28;20486;-45
2022/03/03 05:48:33;;;;;;;36.17;17.93;;;-0.90;82.50;;;;;;5043258;28;20838;-45
2022/03/03 05:51:00;;;;;;;35.33;18.07;;;-0.90;82.80;;;;;;5042545;28;22134;-45
2022/03/03 05:53:27;;;;;;;35.20;19.00;;;-0.90;82.10;;;;;;5039695;28;20499;-45
2022/03/03 05:55:56;;;;;;;29.93;17.63;;;-1.10;81.60;;;;;;5038608;28;20482;-45
2022/03/03 05:58:28;;;;;;;29.23;17.40;;;-1.30;82.20;;;;;;5038486;28;20520;-45
2022/03/03 06:00:59;;;;;;;33.07;19.60;;;-1.60;83.50;;;;;;5027818;28;20470;-45
2022/03/03 06:03:30;;;;;;;33.17;18.53;;;-1.60;83.80;;;;;;5029800;28;20997;-45
2022/03/03 06:06:02;;;;;;;37.43;17.23;;;-1.50;83.90;;;;;;5028816;28;20978;-45
2022/03/03 06:08:37;;;;;;;36.77;17.80;;;-1.40;83.60;;;;;;5028720;28;20510;-45
2022/03/03 06:11:05;;;;;;;33.07;18.57;;;;;;;;;;5027524;28;20482;-46
2022/03/03 06:13:37;;;;;;;27.73;16.87;;;-1.30;82.80;;;;;;5040223;28;20723;-46
2022/03/03 06:16:05;;;;;;;31.73;17.47;;;-1.30;82.70;;;;;;5039386;28;21139;-46
2022/03/03 06:18:33;;;;;;;33.40;17.30;;;-1.40;82.70;;;;;;5040076;28;20479;-46
2022/03/03 06:21:01;;;;;;;33.73;17.77;;;-1.20;82.90;;;;;;5041871;28;20498;-49
2022/03/03 06:23:28;;;;;;;27.13;16.10;;;-1.20;82.70;;;;;;5045094;28;20491;-46
2022/03/03 06:26:02;;;;;;;28.70;17.03;;;-1.10;82.70;;;;;;5048543;28;20493;-45
2022/03/03 06:28:29;;;;;;;35.33;18.57;;;-1.10;82.60;;;;;;5043680;28;20481;-45
2022/03/03 06:30:56;;;;;;;34.80;19.47;;;-1.10;82.60;;;;;;5043907;28;20502;-46
2022/03/03 06:33:23;;;;;;;33.10;18.27;;;-1.10;82.10;;;;;;5043604;28;20861;-46
2022/03/03 06:35:52;;;;;;;33.40;17.70;;;-1.10;81.90;;;;;;5044596;28;20502;-46
2022/03/03 06:38:19;;;;;;;36.40;17.90;;;-1.10;81.90;;;;;;5042994;28;20490;-46
2022/03/03 06:40:46;;;;;;;35.67;18.43;;;-1.00;81.80;;;;;;5042795;28;20478;-46
2022/03/03 06:43:13;;;;;;;37.73;16.60;;;-1.00;81.90;;;;;;5042895;28;20486;-46
2022/03/03 06:45:40;;;;;;;30.43;17.50;;;-1.00;82.10;;;;;;5043426;28;20494;-46
2022/03/03 06:48:07;;;;;;;40.67;18.47;;;-0.90;82.60;;;;;;5042034;28;20482;-46
2022/03/03 06:50:36;;;;;;;28.73;18.23;;;-0.90;82.50;;;;;;5041740;28;20910;-48
2022/03/03 06:53:07;;;;;;;37.63;20.20;;;;;;;;;;5043380;28;20975;-46
2022/03/03 06:55:34;;;;;;;38.53;20.80;;;-0.80;82.60;;;;;;5037742;28;20585;-46
2022/03/03 06:58:01;;;;;;;38.33;23.13;;;-0.70;82.90;;;;;;5054638;28;20486;-46
2022/03/03 07:00:31;;;;;;;36.77;19.70;;;-0.70;83.20;;;;;;5030742;28;20491;-45
2022/03/03 07:02:57;;;;;;;32.10;20.20;;;-0.60;83.30;;;;;;5043519;28;21054;-46
2022/03/03 07:05:24;;;;;;;32.20;20.03;;;-0.60;83.10;;;;;;5041195;28;20506;-45
2022/03/03 07:07:52;;;;;;;41.90;18.80;;;-0.60;83.40;;;;;;5043641;28;20471;-46
2022/03/03 07:10:25;;;;;;;30.83;18.80;;;-0.50;84.30;;;;;;5038714;28;20812;-46
2022/03/03 07:12:52;;;;;;;26.20;17.40;;;-0.50;84.50;;;;;;5043642;28;20479;-46
2022/03/03 07:15:19;;;;;;;40.03;22.43;;;0.20;87.60;;;;;;5042104;28;20481;-46
2022/03/03 07:17:49;;;;;;;40.60;24.03;;;1.20;90.00;;;;;;5041682;28;20499;-46
2022/03/03 07:20:18;;;;;;;42.97;25.80;;;2.40;89.20;;;;;;5040109;28;20482;-46
2022/03/03 07:23:01;;;;;;;48.80;26.70;;;4.20;85.60;;;;;;5041347;28;20480;-46
2022/03/03 07:25:37;;;;;;;47.73;25.90;;;5.40;83.00;;;;;;5043016;28;20467;-46
2022/03/03 07:28:08;;;;;;;49.23;26.17;;;7.00;78.90;;;;;;5040111;28;20483;-46
2022/03/03 07:30:40;;;;;;;42.10;25.57;;;7.90;77.40;;;;;;5038245;28;20575;-47
2022/03/03 07:33:08;;;;;;;47.67;26.53;;;8.40;76.30;;;;;;5033862;28;20493;-46
2022/03/03 07:35:36;;;;;;;42.90;27.03;;;10.10;72.20;;;;;;5060485;28;21187;-46
2022/03/03 07:38:12;;;;;;;44.23;25.90;;;10.90;71.50;;;;;;5043444;28;20476;-46
2022/03/03 07:40:42;;;;;;;34.90;21.90;;;12.00;69.50;;;;;;5030216;28;20484;-47
2022/03/03 07:43:09;;;;;;;41.23;21.13;;;12.60;68.10;;;;;;5043253;28;20539;-47
2022/03/03 07:45:36;;;;;;;33.20;23.43;;;13.50;63.60;;;;;;5042319;28;20870;-47
2022/03/03 07:48:03;;;;;;;34.27;22.80;;;13.90;62.30;;;;;;5042679;28;20485;-44
2022/03/03 07:50:30;;;;;;;33.30;21.60;;;14.10;62.50;;;;;;5041611;28;20477;-45
2022/03/03 07:52:57;;;;;;;34.60;24.03;;;;;;;;;;5042936;28;20643;-44
2022/03/03 07:55:24;;;;;;;30.40;22.90;;;14.90;61.50;;;;;;5042453;28;20490;-45
2022/03/03 07:57:59;;;;;;;34.13;24.80;;;14.80;61.30;;;;;;5041762;28;20986;-45
2022/03/03 08:00:30;;;;;;;39.67;25.97;;;15.50;61.00;;;;;;5039258;28;20490;-45
2022/03/03 08:02:59;;;;;;;35.30;23.63;;;15.60;61.60;;;;;;5039858;28;21039;-45
2022/03/03 08:05:29;;;;;;;36.67;25.47;;;15.80;59.60;;;;;;5038770;28;20575;-44
2022/03/03 08:07:58;;;;;;;35.20;24.00;;;16.10;59.70;;;;;;5042205;28;20483;-45
2022/03/03 08:10:27;;;;;;;30.80;23.40;;;16.40;59.40;;;;;;5039236;28;20490;-44
2022/03/03 08:12:57;;;;;;;35.73;26.23;;;16.60;59.20;;;;;;5041084;28;20491;-45
2022/03/03 08:15:24;;;;;;;33.07;24.70;;;16.80;58.50;;;;;;5047417;28;20495;-45
2022/03/03 08:17:52;;;;;;;31.73;23.07;;;16.90;59.30;;;;;;5038283;28;20483;-45
2022/03/03 08:20:20;;;;;;;29.00;21.40;;;17.30;59.90;;;;;;5041134;28;20676;-45
2022/03/03 08:22:47;;;;;;;31.40;21.60;;;17.40;59.50;;;;;;5039149;28;21218;-46
2022/03/03 08:25:15;;;;;;;26.17;20.80;;;17.30;58.40;;;;;;5042071;28;20493;-45
2022/03/03 08:27:42;;;;;;;24.93;21.00;;;16.80;58.50;;;;;;5041915;28;20486;-46
2022/03/03 08:30:13;;;;;;;27.47;20.60;;;16.60;58.00;;;;;;5040778;28;20491;-45
2022/03/03 08:32:42;;;;;;;29.00;21.53;;;16.10;59.10;;;;;;5042455;28;20481;-45
2022/03/03 08:35:14;;;;;;;32.43;20.47;;;15.60;59.40;;;;;;5042864;28;20482;-46
2022/03/03 08:37:43;;;;;;;25.70;20.83;;;15.20;59.40;;;;;;5038391;28;20474;-45
2022/03/03 08:40:12;;;;;;;27.67;21.10;;;15.00;60.30;;;;;;5038771;28;21386;-46
2022/03/03 08:42:41;;;;;;;26.30;20.00;;;14.60;61.00;;;;;;5048049;28;20478;-45
2022/03/03 08:45:11;;;;;;;29.30;23.43;;;14.30;61.60;;;;;;5041630;28;20480;-46
2022/03/03 08:47:38;;;;;;;31.53;20.70;;;14.00;61.90;;;;;;5039937;28;20535;-51
2022/03/03 08:50:08;;;;;;;31.00;22.60;;;13.70;62.50;;;;;;5039038;28;20878;-45
2022/03/03 08:52:38;;;;;;;29.63;21.43;;;13.50;64.30;;;;;;5028715;28;20489;-45
2022/03/03 08:55:06;;;;;;;31.27;21.23;;;13.30;64.30;;;;;;5041909;28;20477;-44
2022/03/03 08:57:33;;;;;;;28.17;21.37;;;13.20;65.20;;;;;;5041652;28;20465;-45
2022/03/03 09:00:00;;;;;;;33.87;22.87;;;13.10;65.50;;;;;;5039923;28;20481;-44
2022/03/03 09:02:28;;;;;;;32.77;21.77;;;13.00;65.80;;;;;;5040983;28;20493;-44
2022/03/03 09:04:55;;;;;;;30.90;22.50;;;12.90;66.20;;;;;;5041770;28;20573;-47
2022/03/03 09:07:21;;;;;;;39.00;22.67;;;12.80;66.50;;;;;;5041219;28;21006;-45
2022/03/03 09:09:48;;;;;;;31.03;22.13;;;12.70;65.90;;;;;;5039571;28;21225;-45
2022/03/03 09:12:15;;;;;;;29.73;20.90;;;12.60;65.90;;;;;;5040630;28;20493;-44
2022/03/03 09:14:42;;;;;;;30.17;21.33;;;12.30;63.70;;;;;;5039907;28;20985;-45
2022/03/03 09:17:08;;;;;;;26.17;19.20;;;12.20;65.00;;;;;;5045532;28;20485;-45
2022/03/03 09:19:37;;;;;;;35.37;21.87;;;12.10;66.10;;;;;;5039887;28;20482;-44
2022/03/03 09:22:04;;;;;;;29.33;22.20;;;12.10;65.70;;;;;;5040524;28;20465;-44
2022/03/03 09:24:31;;;;;;;36.20;23.53;;;12.10;65.80;;;;;;5040718;28;20495;-44
2022/03/03 09:26:58;;;;;;;38.07;23.83;;;12.20;66.60;;;;;;5041562;28;20468;-44
2022/03/03 09:29:26;;;;;;;30.37;21.90;;;12.20;65.40;;;;;;5037272;28;20504;-45
2022/03/03 09:31:53;;;;;;;44.50;23.50;;;12.00;64.40;;;;;;5041082;28;20488;-44
2022/03/03 09:34:19;;;;;;;31.10;22.77;;;12.00;66.20;;;;;;5041104;28;21031;-45
2022/03/03 09:36:48;;;;;;;33.93;25.43;;;12.00;64.90;;;;;;5040842;28;20484;-44
2022/03/03 09:39:14;;;;;;;39.03;23.53;;;12.20;66.50;;;;;;5039425;28;20494;-43
2022/03/03 09:41:41;;;;;;;31.43;22.43;;;12.20;66.20;;;;;;5041365;28;20475;-44
2022/03/03 09:44:08;;;;;;;29.40;21.70;;;12.30;66.30;;;;;;5041680;28;20490;-44
2022/03/03 09:46:36;;;;;;;35.10;22.10;;;12.30;66.60;;;;;;5029311;28;20471;-44
2022/03/03 09:49:04;;;;;;;32.27;22.40;;;12.40;65.90;;;;;;5039244;28;20511;-44
2022/03/03 09:51:30;;;;;;;33.93;23.47;;;12.50;66.70;;;;;;5040884;28;20844;-44
2022/03/03 09:53:58;;;;;;;30.03;23.10;;;12.70;66.70;;;;;;5040332;28;20487;-44
2022/03/03 09:56:26;;;;;;;29.60;21.53;;;12.90;66.30;;;;;;5042669;28;20491;-44
2022/03/03 09:58:53;;;;;;;29.63;21.77;;;12.90;66.20;;;;;;5031612;28;20484;-45
2022/03/03 10:01:19;;;;;;;32.83;21.17;;;13.00;65.20;;;;;;5055383;28;21069;-44
2022/03/03 10:03:47;;;;;;;34.30;21.57;;;12.90;66.10;;;;;;5044999;28;20479;-46
2022/03/03 10:06:14;;;;;;;32.90;21.90;;;12.90;65.60;;;;;;5043369;28;20965;-44
2022/03/03 10:08:41;;;;;;;31.00;22.73;;;12.80;64.30;;;;;;5037588;28;20489;-45
2022/03/03 10:11:10;;;;;;;33.57;21.70;;;12.90;65.10;;;;;;5046340;28;20496;-45
2022/03/03 10:13:48;;;;;;;32.10;21.97;;;12.90;65.30;;;;;;5045067;28;20925;-44
2022/03/03 10:16:24;;;;;;;30.87;21.77;;;13.00;66.70;;;;;;5034941;28;20526;-45
2022/03/03 10:18:59;;;;;;;31.13;22.40;;;13.00;67.00;;;;;;5042653;28;20486;-45
2022/03/03 10:21:28;;;;;;;34.93;22.30;;;13.20;65.70;;;;;;5041400;28;20495;-44
2022/03/03 10:23:57;;;;;;;34.97;23.23;;;13.20;65.60;;;;;;5043966;28;20485;-44
2022/03/03 10:26:38;;;;;;;31.17;21.83;;;13.40;65.00;;;;;;5043381;28;20485;-45
2022/03/03 10:29:16;;;;;;;38.03;21.53;;;13.40;64.30;;;;;;5042918;28;20498;-45
2022/03/03 10:31:46;;;;;;;30.13;22.03;;;13.50;64.30;;;;;;5040282;28;20497;-46
2022/03/03 10:34:17;;;;;;;35.83;22.57;;;13.60;66.30;;;;;;5042558;28;20491;-46
2022/03/03 10:36:43;;;;;;;31.57;21.27;;;13.60;64.00;;;;;;5043577;28;21037;-45
2022/03/03 10:39:10;;;;;;;36.83;24.00;;;13.60;64.60;;;;;;5041281;28;20577;-45
2022/03/03 10:41:41;;;;;;;33.03;22.73;;;13.70;63.70;;;;;;5041924;28;20493;-45
2022/03/03 10:44:09;;;;;;;33.80;24.27;;;13.70;65.00;;;;;;5042488;28;20487;-45
2022/03/03 10:46:38;;;;;;;38.43;23.97;;;13.80;63.60;;;;;;5043784;28;20926;-44
2022/03/03 10:49:22;;;;;;;28.53;21.13;;;13.90;63.50;;;;;;5040461;28;20484;-45
2022/03/03 10:51:50;;;;;;;33.00;22.53;;;13.90;64.80;;;;;;5033611;28;20471;-46
2022/03/03 10:54:17;;;;;;;36.40;23.50;;;14.10;65.70;;;;;;5044541;28;20492;-45
2022/03/03 10:56:48;;;;;;;31.40;21.60;;;14.20;64.40;;;;;;5043575;28;20489;-46
2022/03/03 10:59:23;;;;;;;35.87;23.27;;;14.10;62.60;;;;;;5040081;28;20488;-46
2022/03/03 11:01:51;;;;;;;38.43;22.93;;;14.10;64.80;;;;;;5042491;28;20495;-46
2022/03/03 11:04:19;;;;;;;32.83;20.30;;;14.10;64.10;;;;;;5042737;28;20485;-45
2022/03/03 11:06:49;;;;;;;38.67;23.30;;;14.20;63.10;;;;;;5042507;28;20494;-46
2022/03/03 11:09:17;;;;;;;32.43;22.40;;;14.20;64.00;;;;;;5034943;28;20568;-45
2022/03/03 11:11:46;;;;;;;34.57;23.30;;;14.20;63.50;;;;;;5042247;28;20509;-45
2022/03/03 11:14:13;;;;;;;30.20;20.97;;;14.20;61.90;;;;;;5035381;28;20477;-46
2022/03/03 11:16:41;;;;;;;37.00;23.57;;;14.00;62.50;;;;;;5040663;28;20487;-45
2022/03/03 11:19:09;;;;;;;33.40;21.53;;;14.00;63.20;;;;;;5039384;28;20489;-45
2022/03/03 11:21:36;;;;;;;35.53;21.60;;;14.00;61.90;;;;;;5043082;28;21037;-45
2022/03/03 11:24:04;;;;;;;32.43;23.00;;;14.10;62.80;;;;;;5043115;28;20491;-45
2022/03/03 11:26:34;;;;;;;34.40;21.77;;;14.20;62.60;;;;;;5040314;28;20477;-45
2022/03/03 11:29:09;;;;;;;34.20;24.33;;;14.30;63.40;;;;;;5039321;28;20493;-45
2022/03/03 11:31:37;;;;;;;31.83;21.10;;;14.20;60.00;;;;;;5037203;28;20527;-46
2022/03/03 11:34:29;;;;;;;30.40;20.87;;;14.30;61.50;;;;;;5043385;28;20883;-45
2022/03/03 11:37:05;;;;;;;39.87;22.20;;;14.40;62.40;;;;;;5042989;28;20466;-45
2022/03/03 11:39:40;;;;;;;29.67;22.10;;;14.50;61.20;;;;;;5040080;28;20501;-46
2022/03/03 11:42:25;;;;;;;36.77;22.53;;;14.60;62.00;;;;;;5042498;28;20489;-45
2022/03/03 11:44:55;;;;;;;26.07;20.13;;;14.80;62.80;;;;;;5042700;28;20489;-46
2022/03/03 11:47:23;;;;;;;33.83;21.70;;;15.00;63.70;;;;;;5042365;28;21400;-45
2022/03/03 11:50:06;;;;;;;32.10;22.13;;;15.20;64.00;;;;;;5040668;28;20826;-46
2022/03/03 11:52:33;;;;;;;32.37;22.20;;;15.40;60.60;;;;;;5043679;28;20680;-45
2022/03/03 11:55:27;;;;;;;34.43;20.53;;;15.60;62.10;;;;;;5046285;28;20485;-45
2022/03/03 11:57:54;;;;;;;33.47;22.70;;;15.70;60.50;;;;;;5040438;28;20487;-45
2022/03/03 12:00:22;;;;;;;32.50;20.20;;;15.80;60.40;;;;;;5037873;28;20848;-45
2022/03/03 12:02:59;;;;;;;33.00;20.70;;;15.70;59.10;;;;;;5040524;28;20899;-45
2022/03/03 12:05:40;;;;;;;31.93;21.33;;;15.70;59.70;;;;;;5040524;28;20479;-45
2022/03/03 12:08:28;;;;;;;33.57;20.60;;;15.70;58.80;;;;;;5041883;28;20463;-45
2022/03/03 12:11:01;;;;;;;34.37;20.77;;;15.60;57.80;;;;;;5029390;28;20548;-45
2022/03/03 12:13:30;;;;;;;32.10;20.13;;;15.70;58.00;;;;;;5041402;28;20475;-45
2022/03/03 12:16:25;;;;;;;36.23;21.87;;;15.60;58.00;;;;;;5041844;28;20517;-45
2022/03/03 12:19:09;;;;;;;29.03;20.47;;;15.50;59.00;;;;;;5026861;28;20515;-45
2022/03/03 12:21:38;;;;;;;34.10;22.27;;;15.60;60.80;;;;;;5042762;28;20489;-45
2022/03/03 12:24:31;;;;;;;33.47;23.17;;;15.70;59.50;;;;;;5041593;28;20495;-44
2022/03/03 12:27:19;;;;;;;31.10;21.17;;;15.70;57.60;;;;;;5039331;28;20497;-45
2022/03/03 12:29:52;;;;;;;29.53;20.07;;;15.70;58.20;;;;;;5027964;28;20463;-45
2022/03/03 12:32:56;;;;;;;31.07;21.37;;;15.60;56.50;;;;;;5042022;28;21480;-45
2022/03/03 12:35:28;;;;;;;28.50;19.50;;;15.60;59.90;;;;;;5007546;28;20486;-45
2022/03/03 12:37:59;;;;;;;31.83;20.20;;;15.60;57.60;;;;;;5044101;28;20485;-45
2022/03/03 12:40:28;;;;;;;30.10;20.77;;;15.60;56.00;;;;;;5038381;28;20869;-45